TAPATQPF

Guest
Details From TAPA - Antigua - V C Bird Intl
To TQPF - Anguilla/Wallblake
Flight Number -
Tags generated
Created
Modified
Stats Distance 97 nm / 180 km
Max Altitude 9,400 ft / 2,865 m
Waypoints 3
Social Downloads 0
Likes 0
Share VATSIM

Download

Looking for another format? Having issues loading an existing format? Contact us
Advertisement - Login to hide

Notes

Basic altitude profile: - Ascent Rate: 2500ft/min - Ascent Speed: 250kts - Cruise Altitude: 35000ft - Cruise Speed: 420kts - Descent Rate: 1500ft/min - Descent Speed: 250kts Options: - Use NATs: yes - Use PACOTS: yes - Use low airways: yes - Use high airways: yes

Route

TAPA ELOPO TQPF

ID Type Via Altitude Latitude Longitude Leg Dist Tot Dist Heading (true) Name
O TAPA APT - 0 ft / 0 m 17.13674˚ -61.79266˚ - 0 nm - Antigua - V C Bird Intl
ELOPO FIX - 9,400 ft / 2,865 m 17.65006˚ -62.55439˚ 53 nm 53 nm 305° / 305° -
O TQPF APT - 0 ft / 0 m 18.20480˚ -63.05386˚ 43 nm 97 nm 319° / 319° Anguilla/Wallblake

Altitude Profile

Advertisement - Login to hide

TAPA

Details ICAO TAPA (ANU)
Name Antigua - V C Bird Intl
Region Antigua and Barbuda
Timezone America/Antigua (UTC-4.0)
Stats Elevation 62 ft / 19 m (AMSL)
Location 17.136737° -61.792662°
Runways 1
Magnetic Variation 14.767° W

METAR

TAPA 142100Z 08008KT 9999 FEW022 27/21 Q1016 NOSIG

Decode

TAF

TAF TAPA 141700Z 1418/1518 07012KT 9999 SCT022 PROB30 TEMPO 1504/1510 SHRA

Decode

Departure Runways

ID Width Length Bearing (true) Bearing (mag) Surface Threshold Offset Overrun Length
07 148 ft / 45 m 9,022 ft / 2,750 m 58.28° 73.05° Asphalt 656 ft / 200 m 0 ft / 0 m
25 148 ft / 45 m 9,022 ft / 2,750 m 238.29° 253.06° Asphalt 0 ft / 0 m 0 ft / 0 m

TQPF

Details ICAO TQPF (AXA)
Name Anguilla/Wallblake
Region UK (Anguilla)
Timezone America/Anguilla (UTC-4.0)
Stats Elevation 127 ft / 39 m (AMSL)
Location 18.204798° -63.053855°
Runways 1
Magnetic Variation 14.348° W

METAR

TQPF 142000Z 09008KT 9999 SCT021 28/21 Q1016

Decode

TAF

TAF TQPF 141700Z 1418/1518 09012KT 9999 SCT022

Decode

Destination Runways

ID Width Length Bearing (true) Bearing (mag) Surface Threshold Offset Overrun Length
10 98 ft / 30 m 5,454 ft / 1,662 m 90.65° 105.00° Asphalt 492 ft / 150 m 0 ft / 0 m
28 98 ft / 30 m 5,454 ft / 1,662 m 270.65° 285.00° Asphalt 492 ft / 150 m 0 ft / 0 m

Popular Alternatives